Terminal Aerodrome Forecast
Issued by NWS Greer, SC

Home | Current Version | Previous Version | Text Only | Print | Product List | Glossary On
Versions: 1 2 3 4 5 6 7 8 9 10 11 12 13 14 15 16 17 18 19 20 21 22
000
FTUS42 KGSP 290535
TAFAVL
TAF
KAVL 290535Z 2906/3006 00000KT P6SM FEW200
     FM290800 00000KT 3SM BR FEW004 FEW250
      TEMPO 2908/2909 2SM BR OVC003
     FM290900 00000KT 2SM BR OVC003
      TEMPO 2910/2912 3/4SM BR
     FM291300 35005KT P6SM FEW200=

USA.gov is the U.S. government's official web portal to all federal, state and local government web resources and services.